| time (UTC) | temp F | wind direction | speed MPH | gust MPH | rain 1hr in | rain 24hr in | rain mn in | humidity % | barometer mb |
| 20260504151003 | 62 | 279 | 2.0 | 5.0 | 0.03 | 0.09 | 0.05 | 74 | 1005.8 |
| 20260504150503 | 62 | 325 | 1.0 | 7.0 | 0.04 | 0.09 | 0.05 | 74 | 1005.3 |
| 20260504141003 | 62 | 180 | 2.0 | 6.0 | 0.02 | 0.06 | 0.02 | 75 | 1005.7 |
| 20260504140503 | 63 | 274 | 1.0 | 5.0 | 0.01 | 0.05 | 0.01 | 70 | 1006.0 |
| 20260504130503 | 64 | 189 | 4.0 | 9.0 | 0.00 | 0.04 | 0.00 | 67 | 1005.9 |
| 20260504110503 | 55 | 193 | 0.0 | 2.0 | 0.00 | 0.04 | 0.00 | 88 | 1006.5 |
| 20260504100503 | 56 | 192 | 1.0 | 3.0 | 0.00 | 0.04 | 0.00 | 87 | 1007.0 |
| 20260504082003 | 58 | 197 | 1.0 | 5.0 | 0.00 | 0.04 | 0.00 | 82 | 1006.2 |
| 20260504081503 | 57 | 208 | 2.0 | 5.0 | 0.00 | 0.04 | 0.00 | 87 | 1006.5 |
| 20260504081003 | 56 | 208 | 1.0 | 3.0 | 0.00 | 0.04 | 0.00 | 89 | 1006.7 |
| 20260504080503 | 55 | 209 | 1.0 | 3.0 | 0.00 | 0.04 | 0.00 | 90 | 1006.6 |
| 20260504050503 | 57 | 282 | 0.0 | 2.0 | 0.00 | 0.04 | 0.00 | 92 | 1007.4 |
| 20260504050003 | 57 | 360 | 0.0 | 2.0 | 0.00 | 0.04 | 0.00 | 92 | 1007.5 |
| 20260504045717 | 57 | 205 | 0.0 | 2.0 | 0.00 | 0.04 | 0.04 | 91 | 1007.4 |
| 20260504045003 | 57 | 205 | 0.0 | 2.0 | 0.00 | 0.04 | 0.04 | 91 | 1007.3 |
| 20260504044504 | 58 | 0 | 0.0 | 0.0 | 0.00 | 0.04 | 0.04 | 91 | 1007.3 |
| 20260504044003 | 58 | 360 | 0.0 | 2.0 | 0.00 | 0.04 | 0.04 | 91 | 1007.4 |
| 20260504043503 | 58 | 205 | 0.0 | 2.0 | 0.00 | 0.04 | 0.04 | 90 | 1007.4 |
| 20260504043003 | 58 | 360 | 0.0 | 1.0 | 0.00 | 0.04 | 0.04 | 91 | 1007.4 |
| 20260504042503 | 58 | 360 | 0.0 | 1.0 | 0.00 | 0.04 | 0.04 | 90 | 1007.2 |
| 20260504042003 | 58 | 264 | 0.0 | 2.0 | 0.00 | 0.04 | 0.04 | 90 | 1007.3 |
| 20260504041503 | 59 | 205 | 0.0 | 3.0 | 0.01 | 0.04 | 0.04 | 89 | 1007.4 |
| 20260504041003 | 59 | 197 | 2.0 | 3.0 | 0.04 | 0.04 | 0.04 | 90 | 1007.4 |
| 20260504040503 | 58 | 196 | 2.0 | 3.0 | 0.04 | 0.04 | 0.04 | 90 | 1007.4 |
| 20260504040218 | 58 | 164 | 1.0 | 3.0 | 0.04 | 0.04 | 0.04 | 90 | 1007.5 |
| 20260504035503 | 59 | 80 | 0.0 | 2.0 | 0.04 | 0.04 | 0.04 | 89 | 1007.8 |
| 20260504035003 | 59 | 161 | 0.0 | 2.0 | 0.04 | 0.04 | 0.04 | 89 | 1007.8 |
| 20260504034503 | 59 | 360 | 0.0 | 2.0 | 0.04 | 0.04 | 0.04 | 88 | 1008.1 |
| 20260504034003 | 59 | 245 | 2.0 | 2.0 | 0.04 | 0.04 | 0.04 | 88 | 1008.2 |
| 20260504033503 | 59 | 268 | 0.0 | 2.0 | 0.04 | 0.04 | 0.04 | 86 | 1008.2 |
| 20260504033003 | 60 | 263 | 1.0 | 2.0 | 0.04 | 0.04 | 0.04 | 84 | 1008.1 |
| 20260504032503 | 61 | 171 | 0.0 | 4.0 | 0.04 | 0.04 | 0.04 | 81 | 1008.2 |
| 20260504032003 | 62 | 171 | 1.0 | 5.0 | 0.04 | 0.04 | 0.04 | 77 | 1008.5 |
| 20260504031503 | 63 | 204 | 2.0 | 5.0 | 0.03 | 0.03 | 0.03 | 74 | 1008.9 |
| 20260504031003 | 62 | 276 | 2.0 | 4.0 | 0.00 | 0.00 | 0.00 | 73 | 1008.6 |
| 20260504030503 | 63 | 281 | 1.0 | 2.0 | 0.00 | 0.00 | 0.00 | 74 | 1007.6 |
| 20260504030003 | 64 | 360 | 0.0 | 2.0 | 0.00 | 0.00 | 0.00 | 71 | 1007.5 |
| 20260504025503 | 64 | 281 | 0.0 | 2.0 | 0.00 | 0.00 | 0.00 | 70 | 1007.7 |
| 20260504025003 | 64 | 281 | 0.0 | 1.0 | 0.00 | 0.00 | 0.00 | 70 | 1007.6 |
| 20260504024503 | 64 | 0 | 0.0 | 0.0 | 0.00 | 0.00 | 0.00 | 70 | 1007.7 |
| 20260504024003 | 64 | 0 | 0.0 | 0.0 | 0.00 | 0.00 | 0.00 | 69 | 1007.8 |
| 20260504023503 | 65 | 0 | 0.0 | 0.0 | 0.00 | 0.00 | 0.00 | 69 | 1007.7 |
| 20260504023003 | 65 | 0 | 0.0 | 0.0 | 0.00 | 0.00 | 0.00 | 68 | 1007.8 |
| 20260504022503 | 65 | 0 | 0.0 | 0.0 | 0.00 | 0.00 | 0.00 | 67 | 1007.6 |
| 20260504022003 | 66 | 0 | 0.0 | 0.0 | 0.00 | 0.00 | 0.00 | 67 | 1007.7 |
| 20260504021503 | 66 | 0 | 0.0 | 0.0 | 0.00 | 0.00 | 0.00 | 64 | 1007.6 |
| 20260504021217 | 67 | 360 | 0.0 | 0.0 | 0.00 | 0.00 | 0.00 | 62 | 1007.6 |
| 20260504020504 | 68 | 360 | 0.0 | 2.0 | 0.00 | 0.00 | 0.00 | 60 | 1007.6 |
| 20260504020003 | 68 | 320 | 0.0 | 2.0 | 0.00 | 0.00 | 0.00 | 59 | 1007.9 |
| 20260504015718 | 68 | 281 | 0.0 | 2.0 | 0.00 | 0.00 | 0.00 | 59 | 1007.9 |
| 20260504015003 | 68 | 360 | 0.0 | 1.0 | 0.00 | 0.00 | 0.00 | 60 | 1007.9 |
| 20260504014718 | 68 | 360 | 0.0 | 1.0 | 0.00 | 0.00 | 0.00 | 62 | 1007.9 |
| 20260504014003 | 69 | 360 | 0.0 | 2.0 | 0.00 | 0.00 | 0.00 | 58 | 1007.8 |
| 20260504013503 | 69 | 281 | 0.0 | 2.0 | 0.00 | 0.00 | 0.00 | 58 | 1007.7 |
| 20260504013003 | 69 | 0 | 0.0 | 0.0 | 0.00 | 0.00 | 0.00 | 58 | 1007.7 |
| 20260504012503 | 70 | 0 | 0.0 | 0.0 | 0.00 | 0.00 | 0.00 | 57 | 1007.7 |
| 20260504012003 | 71 | 0 | 0.0 | 0.0 | 0.00 | 0.00 | 0.00 | 54 | 1007.7 |
| 20260504011503 | 72 | 0 | 0.0 | 0.0 | 0.00 | 0.00 | 0.00 | 52 | 1007.6 |
| 20260504011003 | 72 | 0 | 0.0 | 0.0 | 0.00 | 0.00 | 0.00 | 52 | 1007.6 |
| 20260504010503 | 72 | 0 | 0.0 | 0.0 | 0.00 | 0.00 | 0.00 | 51 | 1007.6 |
| 20260504010003 | 72 | 0 | 0.0 | 0.0 | 0.00 | 0.00 | 0.00 | 49 | 1007.6 |
| 20260504005503 | 73 | 360 | 0.0 | 0.0 | 0.00 | 0.00 | 0.00 | 48 | 1007.5 |
| 20260504005004 | 74 | 360 | 0.0 | 1.0 | 0.00 | 0.00 | 0.00 | 46 | 1007.5 |
| 20260504004718 | 74 | 320 | 0.0 | 1.0 | 0.00 | 0.00 | 0.00 | 46 | 1007.4 |
| 20260504004003 | 74 | 360 | 0.0 | 2.0 | 0.00 | 0.00 | 0.00 | 47 | 1007.4 |
| 20260504003503 | 75 | 320 | 0.0 | 2.0 | 0.00 | 0.00 | 0.00 | 45 | 1007.4 |
| 20260504003003 | 75 | 281 | 0.0 | 2.0 | 0.00 | 0.00 | 0.00 | 45 | 1007.4 |
| 20260504002503 | 75 | 320 | 0.0 | 2.0 | 0.00 | 0.00 | 0.00 | 45 | 1007.5 |
| 20260504002003 | 75 | 281 | 1.0 | 2.0 | 0.00 | 0.00 | 0.00 | 45 | 1007.6 |
| 20260504001503 | 75 | 281 | 1.0 | 2.0 | 0.00 | 0.00 | 0.00 | 45 | 1007.5 |
| 20260504001003 | 75 | 281 | 1.0 | 4.0 | 0.00 | 0.00 | 0.00 | 44 | 1007.5 |
| 20260504000717 | 76 | 281 | 1.0 | 4.0 | 0.00 | 0.00 | 0.00 | 44 | 1007.5 |
| 20260504000003 | 76 | 279 | 2.0 | 4.0 | 0.00 | 0.00 | 0.00 | 44 | 1007.6 |
| 20260503235503 | 76 | 268 | 1.0 | 3.0 | 0.00 | 0.00 | 0.00 | 43 | 1007.6 |
| 20260503235216 | 76 | 275 | 1.0 | 3.0 | 0.00 | 0.00 | 0.00 | 43 | 1007.6 |
| 20260503234503 | 76 | 251 | 1.0 | 2.0 | 0.00 | 0.00 | 0.00 | 42 | 1007.5 |
| 20260503234003 | 77 | 219 | 0.0 | 5.0 | 0.00 | 0.00 | 0.00 | 42 | 1007.5 |
| 20260503233717 | 77 | 205 | 0.0 | 5.0 | 0.00 | 0.00 | 0.00 | 40 | 1007.5 |
| 20260503233003 | 77 | 208 | 2.0 | 5.0 | 0.00 | 0.00 | 0.00 | 40 | 1007.5 |
| 20260503232503 | 77 | 239 | 1.0 | 9.0 | 0.00 | 0.00 | 0.00 | 40 | 1007.5 |
| 20260503232003 | 77 | 236 | 1.0 | 9.0 | 0.00 | 0.00 | 0.00 | 40 | 1007.5 |
| 20260503231503 | 78 | 263 | 1.0 | 9.0 | 0.00 | 0.00 | 0.00 | 40 | 1007.5 |
| 20260503231003 | 78 | 235 | 3.0 | 9.0 | 0.00 | 0.00 | 0.00 | 39 | 1007.5 |
| 20260503230503 | 78 | 269 | 3.0 | 11.0 | 0.00 | 0.00 | 0.00 | 39 | 1007.7 |
| 20260503230003 | 78 | 252 | 3.0 | 11.0 | 0.00 | 0.00 | 0.00 | 38 | 1007.7 |
| 20260503225503 | 78 | 244 | 3.0 | 10.0 | 0.00 | 0.00 | 0.00 | 38 | 1007.7 |
| 20260503225218 | 78 | 245 | 3.0 | 11.0 | 0.00 | 0.00 | 0.00 | 37 | 1007.7 |
| 20260503224503 | 79 | 301 | 5.0 | 11.0 | 0.00 | 0.00 | 0.00 | 37 | 1007.7 |
| 20260503224003 | 79 | 228 | 3.0 | 11.0 | 0.00 | 0.00 | 0.00 | 36 | 1007.7 |
| 20260503223503 | 79 | 236 | 2.0 | 11.0 | 0.00 | 0.00 | 0.00 | 37 | 1007.8 |
| 20260503223003 | 79 | 251 | 3.0 | 14.0 | 0.00 | 0.00 | 0.00 | 37 | 1007.8 |
| 20260503222504 | 78 | 245 | 3.0 | 14.0 | 0.00 | 0.00 | 0.00 | 36 | 1007.7 |
| 20260503222003 | 78 | 238 | 3.0 | 8.0 | 0.00 | 0.00 | 0.00 | 37 | 1007.9 |
| 20260503221503 | 79 | 211 | 4.0 | 7.0 | 0.00 | 0.00 | 0.00 | 36 | 1007.9 |
| 20260503221218 | 79 | 248 | 2.0 | 17.0 | 0.00 | 0.00 | 0.00 | 37 | 1008.0 |
| 20260503220717 | 79 | 230 | 3.0 | 17.0 | 0.00 | 0.00 | 0.00 | 36 | 1008.0 |
| 20260503220218 | 79 | 206 | 6.0 | 17.0 | 0.00 | 0.00 | 0.00 | 36 | 1008.0 |
| 20260503215503 | 78 | 268 | 3.0 | 12.0 | 0.00 | 0.00 | 0.00 | 36 | 1008.1 |
| 20260503215003 | 78 | 241 | 3.0 | 10.0 | 0.00 | 0.00 | 0.00 | 37 | 1008.2 |
| 20260503214719 | 78 | 239 | 3.0 | 20.0 | 0.00 | 0.00 | 0.00 | 36 | 1008.2 |
| 20260503214003 | 78 | 223 | 6.0 | 20.0 | 0.00 | 0.00 | 0.00 | 36 | 1008.2 |
| 20260503213503 | 78 | 226 | 4.0 | 12.0 | 0.00 | 0.00 | 0.00 | 36 | 1008.3 |
| 20260503213003 | 78 | 238 | 5.0 | 17.0 | 0.00 | 0.00 | 0.00 | 35 | 1008.3 |
| 20260503212503 | 78 | 246 | 5.0 | 20.0 | 0.00 | 0.00 | 0.00 | 34 | 1008.3 |
| 20260503212217 | 79 | 227 | 3.0 | 20.0 | 0.00 | 0.00 | 0.00 | 36 | 1008.4 |
| 20260503211716 | 79 | 215 | 6.0 | 16.0 | 0.00 | 0.00 | 0.00 | 34 | 1008.5 |
| 20260503211003 | 78 | 258 | 4.0 | 12.0 | 0.00 | 0.00 | 0.00 | 35 | 1008.6 |
| 20260503210503 | 79 | 234 | 4.0 | 12.0 | 0.00 | 0.00 | 0.00 | 35 | 1008.6 |
| 20260503210003 | 79 | 226 | 4.0 | 11.0 | 0.00 | 0.00 | 0.00 | 33 | 1008.7 |
| 20260503205503 | 78 | 247 | 3.0 | 14.0 | 0.00 | 0.00 | 0.00 | 34 | 1008.8 |
| 20260503205003 | 78 | 222 | 6.0 | 14.0 | 0.00 | 0.00 | 0.00 | 34 | 1009.0 |
| 20260503204503 | 78 | 244 | 3.0 | 13.0 | 0.00 | 0.00 | 0.00 | 35 | 1009.0 |
| 20260503204003 | 78 | 229 | 5.0 | 13.0 | 0.00 | 0.00 | 0.00 | 33 | 1009.0 |
| 20260503203503 | 78 | 249 | 3.0 | 18.0 | 0.00 | 0.00 | 0.00 | 34 | 1009.1 |
| 20260503203003 | 78 | 244 | 4.0 | 18.0 | 0.00 | 0.00 | 0.00 | 35 | 1009.1 |
| 20260503202503 | 78 | 224 | 4.0 | 15.0 | 0.00 | 0.00 | 0.00 | 34 | 1009.1 |
| 20260503202003 | 78 | 219 | 4.0 | 13.0 | 0.00 | 0.00 | 0.00 | 36 | 1009.2 |
| 20260503201503 | 78 | 190 | 8.0 | 13.0 | 0.00 | 0.00 | 0.00 | 36 | 1009.4 |
| 20260503201003 | 77 | 233 | 4.0 | 17.0 | 0.00 | 0.00 | 0.00 | 37 | 1009.4 |
| 20260503200503 | 77 | 207 | 5.0 | 17.0 | 0.00 | 0.00 | 0.00 | 34 | 1009.4 |
| 20260503200003 | 76 | 189 | 6.0 | 17.0 | 0.00 | 0.00 | 0.00 | 36 | 1009.4 |
| 20260503195503 | 76 | 182 | 8.0 | 15.0 | 0.00 | 0.00 | 0.00 | 35 | 1009.5 |
| 20260503195217 | 76 | 188 | 6.0 | 13.0 | 0.00 | 0.00 | 0.00 | 37 | 1009.5 |
| 20260503194718 | 75 | 194 | 7.0 | 21.0 | 0.00 | 0.00 | 0.00 | 36 | 1009.6 |
| 20260503194003 | 75 | 208 | 7.0 | 22.0 | 0.00 | 0.00 | 0.00 | 37 | 1009.8 |
| 20260503193718 | 76 | 184 | 11.0 | 22.0 | 0.00 | 0.00 | 0.00 | 35 | 1009.9 |
| 20260503193003 | 75 | 186 | 9.0 | 17.0 | 0.00 | 0.00 | 0.00 | 36 | 1010.0 |
| 20260503192503 | 75 | 225 | 4.0 | 17.0 | 0.00 | 0.00 | 0.00 | 36 | 1010.1 |
| 20260503192217 | 75 | 194 | 6.0 | 17.0 | 0.00 | 0.00 | 0.00 | 36 | 1010.2 |
| 20260503191718 | 75 | 196 | 9.0 | 19.0 | 0.00 | 0.00 | 0.00 | 35 | 1010.2 |
| 20260503191003 | 75 | 212 | 6.0 | 14.0 | 0.00 | 0.00 | 0.00 | 35 | 1010.4 |
| 20260503190503 | 74 | 209 | 5.0 | 17.0 | 0.00 | 0.00 | 0.00 | 37 | 1010.5 |
| 20260503190003 | 74 | 179 | 10.0 | 17.0 | 0.00 | 0.00 | 0.00 | 36 | 1010.7 |
| 20260503185503 | 74 | 202 | 6.0 | 18.0 | 0.00 | 0.00 | 0.00 | 35 | 1010.8 |
| 20260503185217 | 74 | 193 | 7.0 | 18.0 | 0.00 | 0.00 | 0.00 | 36 | 1010.9 |
| 20260503184503 | 74 | 220 | 5.0 | 19.0 | 0.00 | 0.00 | 0.00 | 36 | 1011.0 |
| 20260503184003 | 74 | 196 | 8.0 | 17.0 | 0.00 | 0.00 | 0.00 | 36 | 1011.1 |
| 20260503183717 | 74 | 219 | 5.0 | 17.0 | 0.00 | 0.00 | 0.00 | 36 | 1011.1 |
| 20260503183003 | 73 | 195 | 9.0 | 19.0 | 0.00 | 0.00 | 0.00 | 36 | 1011.3 |
| 20260503182503 | 73 | 205 | 5.0 | 19.0 | 0.00 | 0.00 | 0.00 | 37 | 1011.6 |
| 20260503182004 | 72 | 206 | 6.0 | 16.0 | 0.00 | 0.00 | 0.00 | 36 | 1011.8 |
| 20260503181504 | 72 | 204 | 7.0 | 18.0 | 0.00 | 0.00 | 0.00 | 36 | 1011.8 |
| 20260503181003 | 72 | 189 | 7.0 | 18.0 | 0.00 | 0.00 | 0.00 | 35 | 1011.9 |
| 20260503180503 | 72 | 208 | 4.0 | 15.0 | 0.00 | 0.00 | 0.00 | 35 | 1012.1 |
| 20260503180003 | 72 | 191 | 7.0 | 18.0 | 0.00 | 0.00 | 0.00 | 36 | 1012.3 |
| 20260503175717 | 72 | 221 | 4.0 | 18.0 | 0.00 | 0.00 | 0.00 | 38 | 1012.4 |
| 20260503175218 | 72 | 198 | 7.0 | 18.0 | 0.00 | 0.00 | 0.00 | 37 | 1012.6 |
| 20260503174503 | 71 | 188 | 7.0 | 13.0 | 0.00 | 0.00 | 0.00 | 36 | 1012.9 |
| 20260503174003 | 71 | 220 | 3.0 | 12.0 | 0.00 | 0.00 | 0.00 | 37 | 1013.0 |
| 20260503173503 | 70 | 186 | 5.0 | 12.0 | 0.00 | 0.00 | 0.00 | 39 | 1013.0 |
| 20260503173003 | 70 | 210 | 4.0 | 12.0 | 0.00 | 0.00 | 0.00 | 38 | 1013.2 |
| 20260503172504 | 70 | 192 | 8.0 | 12.0 | 0.00 | 0.00 | 0.00 | 39 | 1013.3 |
| 20260503172003 | 69 | 186 | 7.0 | 12.0 | 0.00 | 0.00 | 0.00 | 38 | 1013.4 |
| 20260503171503 | 68 | 208 | 4.0 | 18.0 | 0.00 | 0.00 | 0.00 | 39 | 1013.6 |
| 20260503171003 | 67 | 185 | 9.0 | 18.0 | 0.00 | 0.00 | 0.00 | 39 | 1013.8 |
| 20260503170503 | 67 | 183 | 7.0 | 12.0 | 0.00 | 0.00 | 0.00 | 39 | 1014.1 |